sensor_id;sensor_type;location;lat;lon;timestamp;P1;durP1;ratioP1;P2;durP2;ratioP2
55633;SDS011;41504;53.162;6.788;2023-07-02T00:02:05;14.88;;;6.10;;
55633;SDS011;41504;53.162;6.788;2023-07-02T00:04:30;11.85;;;5.68;;
55633;SDS011;41504;53.162;6.788;2023-07-02T00:06:56;10.90;;;5.57;;
55633;SDS011;41504;53.162;6.788;2023-07-02T00:09:22;16.83;;;6.13;;
55633;SDS011;41504;53.162;6.788;2023-07-02T00:11:48;13.45;;;5.75;;
55633;SDS011;41504;53.162;6.788;2023-07-02T00:14:13;14.30;;;6.30;;
55633;SDS011;41504;53.162;6.788;2023-07-02T00:16:42;13.45;;;5.80;;
55633;SDS011;41504;53.162;6.788;2023-07-02T00:19:10;13.02;;;6.00;;
55633;SDS011;41504;53.162;6.788;2023-07-02T00:21:38;15.48;;;6.50;;
55633;SDS011;41504;53.162;6.788;2023-07-02T00:24:05;14.48;;;6.20;;
55633;SDS011;41504;53.162;6.788;2023-07-02T00:26:35;15.80;;;6.63;;
55633;SDS011;41504;53.162;6.788;2023-07-02T00:29:08;17.60;;;6.60;;
55633;SDS011;41504;53.162;6.788;2023-07-02T00:31:35;20.92;;;6.88;;
55633;SDS011;41504;53.162;6.788;2023-07-02T00:34:01;17.92;;;6.55;;
55633;SDS011;41504;53.162;6.788;2023-07-02T00:36:27;15.00;;;6.70;;
55633;SDS011;41504;53.162;6.788;2023-07-02T00:38:54;16.35;;;6.88;;
55633;SDS011;41504;53.162;6.788;2023-07-02T00:41:23;15.35;;;7.00;;
55633;SDS011;41504;53.162;6.788;2023-07-02T00:43:49;14.77;;;6.90;;
55633;SDS011;41504;53.162;6.788;2023-07-02T00:46:15;16.77;;;7.50;;
55633;SDS011;41504;53.162;6.788;2023-07-02T00:48:46;17.20;;;7.32;;
55633;SDS011;41504;53.162;6.788;2023-07-02T00:51:13;17.60;;;7.35;;
55633;SDS011;41504;53.162;6.788;2023-07-02T00:53:41;18.70;;;7.32;;
55633;SDS011;41504;53.162;6.788;2023-07-02T00:56:08;18.35;;;8.25;;
55633;SDS011;41504;53.162;6.788;2023-07-02T00:58:38;15.82;;;7.25;;
55633;SDS011;41504;53.162;6.788;2023-07-02T01:01:40;17.75;;;7.45;;
55633;SDS011;41504;53.162;6.788;2023-07-02T01:04:07;18.80;;;7.20;;
55633;SDS011;41504;53.162;6.788;2023-07-02T01:06:39;16.93;;;7.43;;
55633;SDS011;41504;53.162;6.788;2023-07-02T01:09:09;19.40;;;8.15;;
55633;SDS011;41504;53.162;6.788;2023-07-02T01:11:54;19.88;;;8.07;;
55633;SDS011;41504;53.162;6.788;2023-07-02T01:14:33;20.65;;;7.55;;
55633;SDS011;41504;53.162;6.788;2023-07-02T01:17:12;19.45;;;7.57;;
55633;SDS011;41504;53.162;6.788;2023-07-02T01:22:09;18.02;;;7.43;;
55633;SDS011;41504;53.162;6.788;2023-07-02T01:24:38;20.52;;;7.43;;
55633;SDS011;41504;53.162;6.788;2023-07-02T01:27:04;20.15;;;7.55;;
55633;SDS011;41504;53.162;6.788;2023-07-02T01:29:35;20.05;;;8.07;;
55633;SDS011;41504;53.162;6.788;2023-07-02T01:32:04;18.38;;;8.45;;
55633;SDS011;41504;53.162;6.788;2023-07-02T01:34:31;19.58;;;8.38;;
55633;SDS011;41504;53.162;6.788;2023-07-02T01:36:57;19.85;;;8.15;;
55633;SDS011;41504;53.162;6.788;2023-07-02T01:39:23;17.38;;;7.50;;
55633;SDS011;41504;53.162;6.788;2023-07-02T01:41:49;21.63;;;8.65;;
55633;SDS011;41504;53.162;6.788;2023-07-02T01:44:19;18.92;;;7.72;;
55633;SDS011;41504;53.162;6.788;2023-07-02T01:46:46;18.50;;;7.78;;
55633;SDS011;41504;53.162;6.788;2023-07-02T01:49:15;19.02;;;7.88;;
55633;SDS011;41504;53.162;6.788;2023-07-02T01:51:44;20.85;;;7.90;;
55633;SDS011;41504;53.162;6.788;2023-07-02T01:54:20;19.50;;;8.10;;
55633;SDS011;41504;53.162;6.788;2023-07-02T01:56:47;17.98;;;8.25;;
55633;SDS011;41504;53.162;6.788;2023-07-02T01:59:13;19.50;;;8.05;;
55633;SDS011;41504;53.162;6.788;2023-07-02T02:01:39;17.70;;;8.02;;
55633;SDS011;41504;53.162;6.788;2023-07-02T02:04:09;18.83;;;7.63;;
55633;SDS011;41504;53.162;6.788;2023-07-02T02:06:36;19.75;;;7.70;;
55633;SDS011;41504;53.162;6.788;2023-07-02T02:09:03;18.98;;;7.72;;
55633;SDS011;41504;53.162;6.788;2023-07-02T02:11:29;23.08;;;8.00;;
55633;SDS011;41504;53.162;6.788;2023-07-02T02:13:56;19.58;;;8.00;;
55633;SDS011;41504;53.162;6.788;2023-07-02T02:16:22;20.70;;;8.35;;
55633;SDS011;41504;53.162;6.788;2023-07-02T02:18:48;21.60;;;8.57;;
55633;SDS011;41504;53.162;6.788;2023-07-02T02:21:18;18.98;;;7.88;;
55633;SDS011;41504;53.162;6.788;2023-07-02T02:23:44;21.38;;;8.05;;
55633;SDS011;41504;53.162;6.788;2023-07-02T02:26:10;18.30;;;7.72;;
55633;SDS011;41504;53.162;6.788;2023-07-02T02:28:42;21.00;;;8.00;;
55633;SDS011;41504;53.162;6.788;2023-07-02T02:31:11;23.58;;;9.13;;
55633;SDS011;41504;53.162;6.788;2023-07-02T02:33:36;20.15;;;7.78;;
55633;SDS011;41504;53.162;6.788;2023-07-02T02:36:03;22.73;;;8.25;;
55633;SDS011;41504;53.162;6.788;2023-07-02T02:38:29;20.38;;;8.27;;
55633;SDS011;41504;53.162;6.788;2023-07-02T02:40:55;21.63;;;8.55;;
55633;SDS011;41504;53.162;6.788;2023-07-02T02:43:20;22.17;;;8.85;;
55633;SDS011;41504;53.162;6.788;2023-07-02T02:45:47;21.85;;;8.30;;
55633;SDS011;41504;53.162;6.788;2023-07-02T02:48:13;26.75;;;8.75;;
55633;SDS011;41504;53.162;6.788;2023-07-02T02:50:39;21.58;;;8.98;;
55633;SDS011;41504;53.162;6.788;2023-07-02T02:53:09;20.05;;;7.97;;
55633;SDS011;41504;53.162;6.788;2023-07-02T02:55:35;20.75;;;8.65;;
55633;SDS011;41504;53.162;6.788;2023-07-02T02:58:04;21.55;;;9.18;;
55633;SDS011;41504;53.162;6.788;2023-07-02T03:00:30;22.33;;;8.02;;
55633;SDS011;41504;53.162;6.788;2023-07-02T03:02:56;18.75;;;8.10;;
55633;SDS011;41504;53.162;6.788;2023-07-02T03:05:41;26.05;;;9.13;;
55633;SDS011;41504;53.162;6.788;2023-07-02T03:08:09;20.45;;;8.50;;
55633;SDS011;41504;53.162;6.788;2023-07-02T03:10:35;24.27;;;8.55;;
55633;SDS011;41504;53.162;6.788;2023-07-02T03:13:00;19.42;;;8.55;;
55633;SDS011;41504;53.162;6.788;2023-07-02T03:15:27;22.92;;;8.95;;
55633;SDS011;41504;53.162;6.788;2023-07-02T03:17:53;23.88;;;8.70;;
55633;SDS011;41504;53.162;6.788;2023-07-02T03:20:19;21.55;;;8.60;;
55633;SDS011;41504;53.162;6.788;2023-07-02T03:22:45;20.55;;;8.13;;
55633;SDS011;41504;53.162;6.788;2023-07-02T03:25:11;21.08;;;8.60;;
55633;SDS011;41504;53.162;6.788;2023-07-02T03:27:36;21.05;;;8.77;;
55633;SDS011;41504;53.162;6.788;2023-07-02T03:30:02;22.33;;;9.10;;
55633;SDS011;41504;53.162;6.788;2023-07-02T03:32:29;21.33;;;9.13;;
55633;SDS011;41504;53.162;6.788;2023-07-02T03:34:54;19.33;;;9.43;;
55633;SDS011;41504;53.162;6.788;2023-07-02T03:37:22;20.30;;;8.63;;
55633;SDS011;41504;53.162;6.788;2023-07-02T03:39:47;21.27;;;8.60;;
55633;SDS011;41504;53.162;6.788;2023-07-02T03:42:13;23.30;;;9.65;;
55633;SDS011;41504;53.162;6.788;2023-07-02T03:44:39;22.42;;;8.65;;
55633;SDS011;41504;53.162;6.788;2023-07-02T03:47:05;21.58;;;9.43;;
55633;SDS011;41504;53.162;6.788;2023-07-02T03:49:37;20.88;;;8.07;;
55633;SDS011;41504;53.162;6.788;2023-07-02T03:52:03;22.67;;;8.75;;
55633;SDS011;41504;53.162;6.788;2023-07-02T03:54:30;20.35;;;8.63;;
55633;SDS011;41504;53.162;6.788;2023-07-02T03:56:56;17.75;;;8.60;;
55633;SDS011;41504;53.162;6.788;2023-07-02T03:59:21;22.65;;;9.05;;
55633;SDS011;41504;53.162;6.788;2023-07-02T04:01:47;20.73;;;9.00;;
55633;SDS011;41504;53.162;6.788;2023-07-02T04:04:13;19.23;;;8.43;;
55633;SDS011;41504;53.162;6.788;2023-07-02T04:06:39;20.00;;;8.95;;
55633;SDS011;41504;53.162;6.788;2023-07-02T04:09:04;23.20;;;7.63;;
55633;SDS011;41504;53.162;6.788;2023-07-02T04:11:30;21.48;;;8.75;;
55633;SDS011;41504;53.162;6.788;2023-07-02T04:13:56;20.60;;;7.95;;
55633;SDS011;41504;53.162;6.788;2023-07-02T04:16:22;23.13;;;9.15;;
55633;SDS011;41504;53.162;6.788;2023-07-02T04:18:47;20.33;;;8.38;;
55633;SDS011;41504;53.162;6.788;2023-07-02T04:21:13;22.00;;;8.77;;
55633;SDS011;41504;53.162;6.788;2023-07-02T04:23:39;21.13;;;8.27;;
55633;SDS011;41504;53.162;6.788;2023-07-02T04:26:05;21.52;;;8.50;;
55633;SDS011;41504;53.162;6.788;2023-07-02T04:28:34;20.20;;;8.52;;
55633;SDS011;41504;53.162;6.788;2023-07-02T04:30:59;22.98;;;8.82;;
55633;SDS011;41504;53.162;6.788;2023-07-02T04:33:25;21.63;;;8.32;;
55633;SDS011;41504;53.162;6.788;2023-07-02T04:35:51;19.55;;;8.00;;
55633;SDS011;41504;53.162;6.788;2023-07-02T04:38:16;21.15;;;8.00;;
55633;SDS011;41504;53.162;6.788;2023-07-02T04:40:42;20.77;;;7.72;;
55633;SDS011;41504;53.162;6.788;2023-07-02T04:43:10;18.42;;;8.20;;
55633;SDS011;41504;53.162;6.788;2023-07-02T04:45:35;22.33;;;8.18;;
55633;SDS011;41504;53.162;6.788;2023-07-02T04:48:09;23.38;;;8.32;;
55633;SDS011;41504;53.162;6.788;2023-07-02T04:50:35;25.15;;;8.98;;
55633;SDS011;41504;53.162;6.788;2023-07-02T04:53:04;21.23;;;8.05;;
55633;SDS011;41504;53.162;6.788;2023-07-02T04:55:29;20.73;;;8.00;;
55633;SDS011;41504;53.162;6.788;2023-07-02T04:57:56;23.80;;;8.60;;
55633;SDS011;41504;53.162;6.788;2023-07-02T05:00:25;20.77;;;8.57;;
55633;SDS011;41504;53.162;6.788;2023-07-02T05:02:51;21.73;;;8.77;;
55633;SDS011;41504;53.162;6.788;2023-07-02T05:05:18;25.73;;;8.77;;
55633;SDS011;41504;53.162;6.788;2023-07-02T05:07:44;22.75;;;7.75;;
55633;SDS011;41504;53.162;6.788;2023-07-02T05:10:10;17.55;;;8.00;;
55633;SDS011;41504;53.162;6.788;2023-07-02T05:12:35;19.40;;;7.78;;
55633;SDS011;41504;53.162;6.788;2023-07-02T05:15:04;20.05;;;7.82;;
55633;SDS011;41504;53.162;6.788;2023-07-02T05:17:30;19.27;;;7.93;;
55633;SDS011;41504;53.162;6.788;2023-07-02T05:19:59;21.02;;;7.97;;
55633;SDS011;41504;53.162;6.788;2023-07-02T05:22:26;20.77;;;8.20;;
55633;SDS011;41504;53.162;6.788;2023-07-02T05:24:51;17.92;;;7.38;;
55633;SDS011;41504;53.162;6.788;2023-07-02T05:27:17;19.30;;;7.97;;
55633;SDS011;41504;53.162;6.788;2023-07-02T05:29:43;19.42;;;7.13;;
55633;SDS011;41504;53.162;6.788;2023-07-02T05:32:12;18.48;;;7.38;;
55633;SDS011;41504;53.162;6.788;2023-07-02T05:34:38;18.88;;;7.10;;
55633;SDS011;41504;53.162;6.788;2023-07-02T05:37:06;17.55;;;7.00;;
55633;SDS011;41504;53.162;6.788;2023-07-02T05:39:33;14.68;;;6.22;;
55633;SDS011;41504;53.162;6.788;2023-07-02T05:41:59;16.80;;;6.78;;
55633;SDS011;41504;53.162;6.788;2023-07-02T05:44:25;19.15;;;7.07;;
55633;SDS011;41504;53.162;6.788;2023-07-02T05:46:50;16.73;;;6.93;;
55633;SDS011;41504;53.162;6.788;2023-07-02T05:49:25;19.08;;;7.10;;
55633;SDS011;41504;53.162;6.788;2023-07-02T05:51:51;16.60;;;6.50;;
55633;SDS011;41504;53.162;6.788;2023-07-02T05:54:18;15.50;;;6.22;;
55633;SDS011;41504;53.162;6.788;2023-07-02T05:56:43;17.50;;;6.93;;
55633;SDS011;41504;53.162;6.788;2023-07-02T05:59:09;15.30;;;5.88;;
55633;SDS011;41504;53.162;6.788;2023-07-02T06:01:35;16.58;;;6.18;;
55633;SDS011;41504;53.162;6.788;2023-07-02T06:04:05;16.17;;;5.88;;
55633;SDS011;41504;53.162;6.788;2023-07-02T06:06:33;17.85;;;6.28;;
55633;SDS011;41504;53.162;6.788;2023-07-02T06:08:59;15.68;;;5.95;;
55633;SDS011;41504;53.162;6.788;2023-07-02T06:11:24;18.92;;;6.43;;
55633;SDS011;41504;53.162;6.788;2023-07-02T06:13:50;13.25;;;5.82;;
55633;SDS011;41504;53.162;6.788;2023-07-02T06:16:16;18.70;;;6.60;;
55633;SDS011;41504;53.162;6.788;2023-07-02T06:18:43;16.58;;;6.55;;
55633;SDS011;41504;53.162;6.788;2023-07-02T06:21:08;14.82;;;6.05;;
55633;SDS011;41504;53.162;6.788;2023-07-02T06:23:41;15.20;;;5.70;;
55633;SDS011;41504;53.162;6.788;2023-07-02T06:26:10;21.70;;;6.47;;
55633;SDS011;41504;53.162;6.788;2023-07-02T06:28:39;16.58;;;5.90;;
55633;SDS011;41504;53.162;6.788;2023-07-02T06:31:04;15.38;;;6.25;;
55633;SDS011;41504;53.162;6.788;2023-07-02T06:33:30;16.13;;;6.10;;
55633;SDS011;41504;53.162;6.788;2023-07-02T06:35:56;17.60;;;6.15;;
55633;SDS011;41504;53.162;6.788;2023-07-02T06:38:22;15.30;;;5.80;;
55633;SDS011;41504;53.162;6.788;2023-07-02T06:40:50;16.38;;;5.70;;
55633;SDS011;41504;53.162;6.788;2023-07-02T06:43:16;21.13;;;6.10;;
55633;SDS011;41504;53.162;6.788;2023-07-02T06:45:42;14.80;;;6.15;;
55633;SDS011;41504;53.162;6.788;2023-07-02T06:48:07;16.27;;;6.03;;
55633;SDS011;41504;53.162;6.788;2023-07-02T06:50:33;16.17;;;5.72;;
55633;SDS011;41504;53.162;6.788;2023-07-02T06:52:59;17.42;;;5.78;;
55633;SDS011;41504;53.162;6.788;2023-07-02T06:55:24;16.98;;;5.88;;
55633;SDS011;41504;53.162;6.788;2023-07-02T06:57:50;14.52;;;5.82;;
55633;SDS011;41504;53.162;6.788;2023-07-02T07:00:16;15.27;;;5.32;;
55633;SDS011;41504;53.162;6.788;2023-07-02T07:02:42;17.50;;;5.93;;
55633;SDS011;41504;53.162;6.788;2023-07-02T07:05:07;13.48;;;5.28;;
55633;SDS011;41504;53.162;6.788;2023-07-02T07:07:34;13.88;;;5.55;;
55633;SDS011;41504;53.162;6.788;2023-07-02T07:10:00;15.10;;;5.15;;
55633;SDS011;41504;53.162;6.788;2023-07-02T07:12:29;13.65;;;4.72;;
55633;SDS011;41504;53.162;6.788;2023-07-02T07:14:55;13.40;;;4.43;;
55633;SDS011;41504;53.162;6.788;2023-07-02T07:17:21;12.75;;;4.22;;
55633;SDS011;41504;53.162;6.788;2023-07-02T07:19:47;10.25;;;3.72;;
55633;SDS011;41504;53.162;6.788;2023-07-02T07:22:12;13.00;;;3.75;;
55633;SDS011;41504;53.162;6.788;2023-07-02T07:24:39;11.48;;;3.55;;
55633;SDS011;41504;53.162;6.788;2023-07-02T07:27:06;10.02;;;3.25;;
55633;SDS011;41504;53.162;6.788;2023-07-02T07:29:32;7.05;;;3.20;;
55633;SDS011;41504;53.162;6.788;2023-07-02T07:32:01;9.57;;;3.47;;
55633;SDS011;41504;53.162;6.788;2023-07-02T07:34:50;11.60;;;3.08;;
55633;SDS011;41504;53.162;6.788;2023-07-02T07:37:16;8.52;;;3.60;;
55633;SDS011;41504;53.162;6.788;2023-07-02T07:39:41;10.60;;;3.63;;
55633;SDS011;41504;53.162;6.788;2023-07-02T07:42:07;13.32;;;3.72;;
55633;SDS011;41504;53.162;6.788;2023-07-02T07:44:33;11.73;;;3.88;;
55633;SDS011;41504;53.162;6.788;2023-07-02T07:46:59;11.35;;;3.80;;
55633;SDS011;41504;53.162;6.788;2023-07-02T07:49:24;11.40;;;3.83;;
55633;SDS011;41504;53.162;6.788;2023-07-02T07:51:50;12.85;;;3.90;;
55633;SDS011;41504;53.162;6.788;2023-07-02T07:54:17;12.20;;;3.40;;
55633;SDS011;41504;53.162;6.788;2023-07-02T07:56:43;10.30;;;3.42;;
55633;SDS011;41504;53.162;6.788;2023-07-02T07:59:08;11.95;;;3.80;;
55633;SDS011;41504;53.162;6.788;2023-07-02T08:01:39;9.07;;;3.13;;
55633;SDS011;41504;53.162;6.788;2023-07-02T08:04:04;13.32;;;3.58;;
55633;SDS011;41504;53.162;6.788;2023-07-02T08:06:30;9.70;;;2.78;;
55633;SDS011;41504;53.162;6.788;2023-07-02T08:08:56;8.35;;;3.28;;
55633;SDS011;41504;53.162;6.788;2023-07-02T08:11:22;10.23;;;3.13;;
55633;SDS011;41504;53.162;6.788;2023-07-02T08:13:48;8.65;;;3.00;;
55633;SDS011;41504;53.162;6.788;2023-07-02T08:16:14;8.27;;;2.92;;
55633;SDS011;41504;53.162;6.788;2023-07-02T08:18:39;9.27;;;3.00;;
55633;SDS011;41504;53.162;6.788;2023-07-02T08:21:05;8.43;;;3.40;;
55633;SDS011;41504;53.162;6.788;2023-07-02T08:23:34;9.27;;;3.38;;
55633;SDS011;41504;53.162;6.788;2023-07-02T08:26:00;9.27;;;3.17;;
55633;SDS011;41504;53.162;6.788;2023-07-02T08:28:26;12.73;;;3.05;;
55633;SDS011;41504;53.162;6.788;2023-07-02T08:30:52;10.52;;;2.85;;
55633;SDS011;41504;53.162;6.788;2023-07-02T08:33:18;8.73;;;3.30;;
55633;SDS011;41504;53.162;6.788;2023-07-02T08:35:43;7.72;;;2.92;;
55633;SDS011;41504;53.162;6.788;2023-07-02T08:38:09;8.60;;;3.05;;
55633;SDS011;41504;53.162;6.788;2023-07-02T08:40:35;8.55;;;2.90;;
55633;SDS011;41504;53.162;6.788;2023-07-02T08:43:01;7.07;;;3.10;;
55633;SDS011;41504;53.162;6.788;2023-07-02T08:45:27;12.52;;;3.42;;
55633;SDS011;41504;53.162;6.788;2023-07-02T08:47:52;10.73;;;3.78;;
55633;SDS011;41504;53.162;6.788;2023-07-02T08:50:23;12.30;;;3.13;;
55633;SDS011;41504;53.162;6.788;2023-07-02T08:52:52;11.07;;;3.72;;
55633;SDS011;41504;53.162;6.788;2023-07-02T08:55:19;10.75;;;3.70;;
55633;SDS011;41504;53.162;6.788;2023-07-02T08:57:55;11.48;;;3.55;;
55633;SDS011;41504;53.162;6.788;2023-07-02T09:00:25;13.90;;;3.88;;
55633;SDS011;41504;53.162;6.788;2023-07-02T09:03:10;10.85;;;3.80;;
55633;SDS011;41504;53.162;6.788;2023-07-02T09:05:49;14.60;;;4.15;;
55633;SDS011;41504;53.162;6.788;2023-07-02T09:08:26;13.52;;;4.53;;
55633;SDS011;41504;53.162;6.788;2023-07-02T09:11:16;10.75;;;4.18;;
55633;SDS011;41504;53.162;6.788;2023-07-02T09:13:49;12.63;;;4.47;;
55633;SDS011;41504;53.162;6.788;2023-07-02T09:24:14;12.30;;;4.75;;
55633;SDS011;41504;53.162;6.788;2023-07-02T09:26:48;10.90;;;4.13;;
55633;SDS011;41504;53.162;6.788;2023-07-02T09:29:21;11.25;;;4.35;;
55633;SDS011;41504;53.162;6.788;2023-07-02T09:31:49;11.00;;;3.50;;
55633;SDS011;41504;53.162;6.788;2023-07-02T09:34:15;10.98;;;3.63;;
55633;SDS011;41504;53.162;6.788;2023-07-02T09:36:42;12.48;;;3.70;;
55633;SDS011;41504;53.162;6.788;2023-07-02T09:39:11;10.13;;;3.20;;
55633;SDS011;41504;53.162;6.788;2023-07-02T09:41:42;10.93;;;4.38;;
55633;SDS011;41504;53.162;6.788;2023-07-02T09:44:09;10.68;;;3.88;;
55633;SDS011;41504;53.162;6.788;2023-07-02T09:46:37;10.48;;;3.53;;
55633;SDS011;41504;53.162;6.788;2023-07-02T09:49:08;10.13;;;3.25;;
55633;SDS011;41504;53.162;6.788;2023-07-02T09:51:39;11.35;;;3.53;;
55633;SDS011;41504;53.162;6.788;2023-07-02T09:54:07;10.40;;;3.10;;
55633;SDS011;41504;53.162;6.788;2023-07-02T09:56:33;8.88;;;2.83;;
55633;SDS011;41504;53.162;6.788;2023-07-02T09:58:58;9.23;;;2.70;;
55633;SDS011;41504;53.162;6.788;2023-07-02T10:01:24;9.48;;;2.78;;
55633;SDS011;41504;53.162;6.788;2023-07-02T10:03:50;9.70;;;3.13;;
55633;SDS011;41504;53.162;6.788;2023-07-02T10:06:16;7.72;;;2.70;;
55633;SDS011;41504;53.162;6.788;2023-07-02T10:08:52;8.73;;;2.65;;
55633;SDS011;41504;53.162;6.788;2023-07-02T10:11:21;9.77;;;2.65;;
55633;SDS011;41504;53.162;6.788;2023-07-02T10:14:00;8.98;;;3.53;;
55633;SDS011;41504;53.162;6.788;2023-07-02T10:16:26;8.50;;;3.13;;
55633;SDS011;41504;53.162;6.788;2023-07-02T10:18:55;9.27;;;2.92;;
55633;SDS011;41504;53.162;6.788;2023-07-02T10:21:32;11.60;;;3.40;;
55633;SDS011;41504;53.162;6.788;2023-07-02T10:24:08;10.07;;;3.10;;
55633;SDS011;41504;53.162;6.788;2023-07-02T10:26:37;10.23;;;3.13;;
55633;SDS011;41504;53.162;6.788;2023-07-02T10:29:03;9.68;;;3.10;;
55633;SDS011;41504;53.162;6.788;2023-07-02T10:31:29;10.30;;;4.18;;
55633;SDS011;41504;53.162;6.788;2023-07-02T10:33:55;9.77;;;3.50;;
55633;SDS011;41504;53.162;6.788;2023-07-02T10:36:21;8.55;;;2.88;;
55633;SDS011;41504;53.162;6.788;2023-07-02T10:38:48;11.50;;;3.40;;
55633;SDS011;41504;53.162;6.788;2023-07-02T10:44:10;8.68;;;3.30;;
55633;SDS011;41504;53.162;6.788;2023-07-02T10:49:11;8.82;;;2.97;;
55633;SDS011;41504;53.162;6.788;2023-07-02T10:51:40;9.32;;;3.00;;
55633;SDS011;41504;53.162;6.788;2023-07-02T10:54:09;10.00;;;3.10;;
55633;SDS011;41504;53.162;6.788;2023-07-02T10:56:35;6.57;;;2.90;;
55633;SDS011;41504;53.162;6.788;2023-07-02T10:59:01;8.45;;;3.00;;
55633;SDS011;41504;53.162;6.788;2023-07-02T11:01:27;9.55;;;3.00;;
55633;SDS011;41504;53.162;6.788;2023-07-02T11:06:24;8.90;;;3.03;;
55633;SDS011;41504;53.162;6.788;2023-07-02T11:08:51;10.38;;;3.05;;
55633;SDS011;41504;53.162;6.788;2023-07-02T11:11:17;9.10;;;3.10;;
55633;SDS011;41504;53.162;6.788;2023-07-02T11:13:44;9.82;;;3.15;;
55633;SDS011;41504;53.162;6.788;2023-07-02T11:16:23;11.23;;;3.30;;
55633;SDS011;41504;53.162;6.788;2023-07-02T11:19:07;9.52;;;3.00;;
55633;SDS011;41504;53.162;6.788;2023-07-02T11:21:34;10.10;;;3.10;;
55633;SDS011;41504;53.162;6.788;2023-07-02T11:24:03;9.13;;;3.00;;
55633;SDS011;41504;53.162;6.788;2023-07-02T11:26:36;9.43;;;3.17;;
55633;SDS011;41504;53.162;6.788;2023-07-02T11:29:02;9.15;;;3.25;;
55633;SDS011;41504;53.162;6.788;2023-07-02T11:31:28;8.40;;;3.00;;
55633;SDS011;41504;53.162;6.788;2023-07-02T11:33:54;10.63;;;3.38;;
55633;SDS011;41504;53.162;6.788;2023-07-02T11:36:21;11.18;;;3.22;;
55633;SDS011;41504;53.162;6.788;2023-07-02T11:38:51;8.32;;;3.13;;
55633;SDS011;41504;53.162;6.788;2023-07-02T11:41:17;9.73;;;3.10;;
55633;SDS011;41504;53.162;6.788;2023-07-02T11:43:44;8.20;;;2.70;;
55633;SDS011;41504;53.162;6.788;2023-07-02T11:46:09;7.78;;;2.90;;
55633;SDS011;41504;53.162;6.788;2023-07-02T11:48:35;7.45;;;3.38;;
55633;SDS011;41504;53.162;6.788;2023-07-02T11:51:03;11.98;;;3.05;;
55633;SDS011;41504;53.162;6.788;2023-07-02T11:53:29;7.80;;;3.00;;
55633;SDS011;41504;53.162;6.788;2023-07-02T11:55:55;9.30;;;3.03;;
55633;SDS011;41504;53.162;6.788;2023-07-02T11:58:21;10.57;;;2.85;;
55633;SDS011;41504;53.162;6.788;2023-07-02T12:00:46;8.43;;;2.72;;
55633;SDS011;41504;53.162;6.788;2023-07-02T12:03:12;8.25;;;3.00;;
55633;SDS011;41504;53.162;6.788;2023-07-02T12:05:38;10.45;;;3.67;;
55633;SDS011;41504;53.162;6.788;2023-07-02T12:08:03;8.90;;;2.88;;
55633;SDS011;41504;53.162;6.788;2023-07-02T12:10:29;7.38;;;2.60;;
55633;SDS011;41504;53.162;6.788;2023-07-02T12:12:55;9.10;;;2.50;;
55633;SDS011;41504;53.162;6.788;2023-07-02T12:15:20;6.22;;;2.22;;
55633;SDS011;41504;53.162;6.788;2023-07-02T12:17:46;7.45;;;2.67;;
55633;SDS011;41504;53.162;6.788;2023-07-02T12:20:12;8.45;;;2.33;;
55633;SDS011;41504;53.162;6.788;2023-07-02T12:22:38;7.20;;;2.20;;
55633;SDS011;41504;53.162;6.788;2023-07-02T12:25:04;7.13;;;2.50;;
55633;SDS011;41504;53.162;6.788;2023-07-02T12:27:37;6.80;;;2.50;;
55633;SDS011;41504;53.162;6.788;2023-07-02T12:30:03;8.52;;;3.13;;
55633;SDS011;41504;53.162;6.788;2023-07-02T12:32:30;6.43;;;2.45;;
55633;SDS011;41504;53.162;6.788;2023-07-02T12:34:55;7.43;;;2.65;;
55633;SDS011;41504;53.162;6.788;2023-07-02T12:37:24;9.15;;;2.92;;
55633;SDS011;41504;53.162;6.788;2023-07-02T12:39:50;6.70;;;2.75;;
55633;SDS011;41504;53.162;6.788;2023-07-02T12:42:16;8.90;;;2.53;;
55633;SDS011;41504;53.162;6.788;2023-07-02T12:44:42;7.05;;;2.42;;
55633;SDS011;41504;53.162;6.788;2023-07-02T12:47:07;8.82;;;2.92;;
55633;SDS011;41504;53.162;6.788;2023-07-02T12:49:33;9.32;;;2.50;;
55633;SDS011;41504;53.162;6.788;2023-07-02T12:51:59;8.77;;;2.47;;
55633;SDS011;41504;53.162;6.788;2023-07-02T12:54:33;8.63;;;2.97;;
55633;SDS011;41504;53.162;6.788;2023-07-02T12:56:59;6.05;;;2.60;;
55633;SDS011;41504;53.162;6.788;2023-07-02T12:59:25;8.45;;;2.80;;
55633;SDS011;41504;53.162;6.788;2023-07-02T13:01:51;9.98;;;3.10;;
55633;SDS011;41504;53.162;6.788;2023-07-02T13:04:16;9.07;;;2.85;;
55633;SDS011;41504;53.162;6.788;2023-07-02T13:06:42;8.48;;;3.20;;
55633;SDS011;41504;53.162;6.788;2023-07-02T13:09:09;8.63;;;3.20;;
55633;SDS011;41504;53.162;6.788;2023-07-02T13:11:35;8.20;;;3.03;;
55633;SDS011;41504;53.162;6.788;2023-07-02T13:14:03;7.78;;;3.40;;
55633;SDS011;41504;53.162;6.788;2023-07-02T13:16:29;9.32;;;3.30;;
55633;SDS011;41504;53.162;6.788;2023-07-02T13:18:55;7.80;;;3.20;;
55633;SDS011;41504;53.162;6.788;2023-07-02T13:21:22;11.45;;;3.53;;
55633;SDS011;41504;53.162;6.788;2023-07-02T13:23:48;7.78;;;3.30;;
55633;SDS011;41504;53.162;6.788;2023-07-02T13:26:13;8.88;;;3.80;;
55633;SDS011;41504;53.162;6.788;2023-07-02T13:28:39;11.68;;;4.13;;
55633;SDS011;41504;53.162;6.788;2023-07-02T13:31:05;11.60;;;4.43;;
55633;SDS011;41504;53.162;6.788;2023-07-02T13:33:36;11.02;;;4.07;;
55633;SDS011;41504;53.162;6.788;2023-07-02T13:36:04;10.82;;;4.03;;
55633;SDS011;41504;53.162;6.788;2023-07-02T13:38:30;9.73;;;4.47;;
55633;SDS011;41504;53.162;6.788;2023-07-02T13:40:57;12.52;;;4.57;;
55633;SDS011;41504;53.162;6.788;2023-07-02T13:43:22;11.80;;;4.25;;
55633;SDS011;41504;53.162;6.788;2023-07-02T13:45:48;11.77;;;4.53;;
55633;SDS011;41504;53.162;6.788;2023-07-02T13:48:14;10.10;;;4.18;;
55633;SDS011;41504;53.162;6.788;2023-07-02T13:50:40;9.40;;;4.00;;
55633;SDS011;41504;53.162;6.788;2023-07-02T13:53:05;9.60;;;4.28;;
55633;SDS011;41504;53.162;6.788;2023-07-02T13:55:34;9.77;;;4.20;;
55633;SDS011;41504;53.162;6.788;2023-07-02T13:58:00;10.85;;;4.30;;
55633;SDS011;41504;53.162;6.788;2023-07-02T14:00:29;9.68;;;4.45;;
55633;SDS011;41504;53.162;6.788;2023-07-02T14:02:55;9.20;;;4.28;;
55633;SDS011;41504;53.162;6.788;2023-07-02T14:05:21;9.65;;;4.20;;
55633;SDS011;41504;53.162;6.788;2023-07-02T14:07:47;11.00;;;4.32;;
55633;SDS011;41504;53.162;6.788;2023-07-02T14:10:13;11.52;;;4.40;;
55633;SDS011;41504;53.162;6.788;2023-07-02T14:12:40;10.85;;;4.63;;
55633;SDS011;41504;53.162;6.788;2023-07-02T14:15:07;15.73;;;4.60;;
55633;SDS011;41504;53.162;6.788;2023-07-02T14:17:34;12.38;;;5.38;;
55633;SDS011;41504;53.162;6.788;2023-07-02T14:20:00;12.77;;;5.13;;
55633;SDS011;41504;53.162;6.788;2023-07-02T14:22:27;11.80;;;4.82;;
55633;SDS011;41504;53.162;6.788;2023-07-02T14:24:53;10.65;;;4.50;;
55633;SDS011;41504;53.162;6.788;2023-07-02T14:27:19;12.30;;;5.07;;
55633;SDS011;41504;53.162;6.788;2023-07-02T14:29:44;10.73;;;4.60;;
55633;SDS011;41504;53.162;6.788;2023-07-02T14:32:12;13.18;;;5.10;;
55633;SDS011;41504;53.162;6.788;2023-07-02T14:34:39;9.43;;;4.47;;
55633;SDS011;41504;53.162;6.788;2023-07-02T14:37:07;13.30;;;5.35;;
55633;SDS011;41504;53.162;6.788;2023-07-02T14:39:33;12.55;;;5.45;;
55633;SDS011;41504;53.162;6.788;2023-07-02T14:41:59;15.88;;;5.28;;
55633;SDS011;41504;53.162;6.788;2023-07-02T14:44:25;14.40;;;5.53;;
55633;SDS011;41504;53.162;6.788;2023-07-02T14:46:51;13.02;;;5.05;;
55633;SDS011;41504;53.162;6.788;2023-07-02T14:49:17;12.50;;;5.10;;
55633;SDS011;41504;53.162;6.788;2023-07-02T14:51:42;9.88;;;4.68;;
55633;SDS011;41504;53.162;6.788;2023-07-02T14:54:09;12.25;;;4.35;;
55633;SDS011;41504;53.162;6.788;2023-07-02T14:56:35;10.32;;;4.50;;
55633;SDS011;41504;53.162;6.788;2023-07-02T14:59:04;11.13;;;4.45;;